Terminal Aerodrome Forecast
Issued by NWS Bismarck, ND

Home | Current Version | Previous Version | Text Only | Print | Product List | Glossary Off
Versions: 1 2 3 4 5 6 7 8 9 10 11 12 13 14 15 16 17 18 19 20 21 22 23 24

252
FTUS43 KBIS 191129
TAFBIS
TAF
KBIS 191129Z 1912/2012 01008KT P6SM BKN120
     FM191700 01008KT P6SM OVC040
     FM192100 02010KT 2SM -SN OVC015
     FM192300 35006KT 1SM -SN OVC009=

USA.gov is the U.S. government's official web portal to all federal, state and local government web resources and services.